createdAt,value
2023-12-31T00:00:30.990Z,101126.91
2023-12-31T00:05:34.700Z,101117.38
2023-12-31T00:10:37.169Z,101117.13
2023-12-31T00:15:39.520Z,101118.19
2023-12-31T00:20:41.668Z,101125.25
2023-12-31T00:25:44.017Z,101117.38
2023-12-31T00:30:46.337Z,101138.31
2023-12-31T00:35:49.299Z,101141.63
2023-12-31T00:40:51.631Z,101126.41
2023-12-31T00:45:53.904Z,101139.03
2023-12-31T00:50:56.163Z,101146.00
2023-12-31T00:55:58.326Z,101139.59
2023-12-31T01:01:00.592Z,101145.28
2023-12-31T01:06:09.285Z,101142.38
2023-12-31T01:11:11.564Z,101150.91
2023-12-31T01:16:13.846Z,101130.81
2023-12-31T01:21:16.146Z,101139.81
2023-12-31T01:26:18.399Z,101123.56
2023-12-31T01:31:21.461Z,101128.91
2023-12-31T01:36:26.598Z,101116.44
2023-12-31T01:41:30.175Z,101111.63
2023-12-31T01:46:33.626Z,101128.03
2023-12-31T01:51:36.449Z,101117.84
2023-12-31T01:56:41.011Z,101117.72
2023-12-31T02:01:43.553Z,101120.81
2023-12-31T02:06:45.810Z,101123.84
2023-12-31T02:11:48.043Z,101115.19
2023-12-31T02:16:50.696Z,101118.59
2023-12-31T02:21:53.410Z,101115.81
2023-12-31T02:26:55.738Z,101126.94
2023-12-31T02:31:57.950Z,101111.06
2023-12-31T02:37:00.190Z,101081.94
2023-12-31T02:42:02.405Z,101108.72
2023-12-31T02:47:04.925Z,101107.78
2023-12-31T02:52:07.328Z,101102.06
2023-12-31T02:57:09.637Z,101091.09
2023-12-31T03:02:12.104Z,101100.06
2023-12-31T03:07:14.795Z,101109.88
2023-12-31T03:12:17.062Z,101096.28
2023-12-31T03:17:19.293Z,101106.41
2023-12-31T03:22:30.567Z,101090.56
2023-12-31T03:27:40.803Z,101124.34
2023-12-31T03:32:43.001Z,101115.50
2023-12-31T03:37:48.590Z,101124.72
2023-12-31T03:42:51.358Z,101128.22
2023-12-31T03:47:53.602Z,101136.56
2023-12-31T03:52:55.875Z,101145.72
2023-12-31T03:57:58.076Z,101147.31
2023-12-31T04:03:00.433Z,101158.78
2023-12-31T04:08:02.729Z,101159.31
2023-12-31T04:13:05.440Z,101148.63
2023-12-31T04:18:07.911Z,101167.53
2023-12-31T04:23:10.269Z,101175.34
2023-12-31T04:28:12.600Z,101166.47
2023-12-31T04:33:15.117Z,101158.09
2023-12-31T04:38:17.388Z,101167.19
2023-12-31T04:43:19.709Z,101156.81
2023-12-31T04:48:22.074Z,101163.84
2023-12-31T04:53:24.351Z,101180.41
2023-12-31T04:58:26.555Z,101156.09
2023-12-31T05:03:28.829Z,101164.50
2023-12-31T05:08:31.114Z,101155.50
2023-12-31T05:13:34.081Z,101165.78
2023-12-31T05:18:36.470Z,101174.50
2023-12-31T05:23:38.771Z,101170.69
2023-12-31T05:28:41.547Z,101171.41
2023-12-31T05:33:44.362Z,101178.09
2023-12-31T05:38:46.671Z,101162.94
2023-12-31T05:43:49.205Z,101178.41
2023-12-31T05:48:51.630Z,101168.75
2023-12-31T05:53:53.933Z,101162.97
2023-12-31T05:58:56.433Z,101159.84
2023-12-31T06:03:58.637Z,101172.59
2023-12-31T06:09:00.904Z,101169.78
2023-12-31T06:14:04.417Z,101178.25
2023-12-31T06:19:06.633Z,101192.84
2023-12-31T06:24:08.921Z,101194.09
2023-12-31T06:29:11.249Z,101203.34
2023-12-31T06:34:13.653Z,101210.34
2023-12-31T06:39:15.859Z,101192.44
2023-12-31T06:44:18.133Z,101226.25
2023-12-31T06:49:20.378Z,101228.91
2023-12-31T06:54:22.643Z,101235.75
2023-12-31T06:59:24.974Z,101214.72
2023-12-31T07:04:27.876Z,101236.16
2023-12-31T07:09:30.113Z,101241.75
2023-12-31T07:14:32.344Z,101246.00
2023-12-31T07:19:34.636Z,101243.50
2023-12-31T07:24:37.681Z,101211.53
2023-12-31T07:29:39.874Z,101225.25
2023-12-31T07:34:42.642Z,101217.84
2023-12-31T07:39:44.945Z,101233.41
2023-12-31T07:44:47.186Z,101242.22
2023-12-31T07:49:49.511Z,101240.34
2023-12-31T07:54:51.807Z,101245.28
2023-12-31T07:59:54.098Z,101241.53
2023-12-31T08:04:56.395Z,101240.84
2023-12-31T08:09:58.666Z,101247.03
2023-12-31T08:15:00.982Z,101242.78
2023-12-31T08:20:03.854Z,101247.03
2023-12-31T08:25:06.488Z,101244.06
2023-12-31T08:30:09.808Z,101250.41
2023-12-31T08:35:12.223Z,101258.00
2023-12-31T08:40:15.822Z,101252.38
2023-12-31T08:45:18.153Z,101275.56
2023-12-31T08:50:20.582Z,101266.28
2023-12-31T08:55:22.940Z,101247.34
2023-12-31T09:00:25.224Z,101261.53
2023-12-31T09:05:27.668Z,101259.56
2023-12-31T09:10:30.345Z,101256.19
2023-12-31T09:15:32.712Z,101221.03
2023-12-31T09:20:35.436Z,101237.78
2023-12-31T09:25:37.678Z,101244.09
2023-12-31T09:30:39.959Z,101218.25
2023-12-31T09:35:42.351Z,101235.50
2023-12-31T09:40:45.332Z,101203.97
2023-12-31T09:45:50.075Z,101213.66
2023-12-31T09:50:52.779Z,101195.09
2023-12-31T09:55:58.412Z,101171.09
2023-12-31T10:01:00.727Z,101163.78
2023-12-31T10:06:04.096Z,101178.09
2023-12-31T10:11:07.663Z,101150.25
2023-12-31T10:16:14.144Z,101133.69
2023-12-31T10:21:16.470Z,101149.13
2023-12-31T10:26:18.776Z,101136.41
2023-12-31T10:31:21.055Z,101120.88
2023-12-31T10:36:27.239Z,101143.16
2023-12-31T10:41:30.463Z,101096.41
2023-12-31T10:46:36.510Z,101094.72
2023-12-31T10:51:43.544Z,101040.47
2023-12-31T10:56:49.262Z,101060.56
2023-12-31T11:01:51.857Z,101035.09
2023-12-31T11:06:56.479Z,101042.13
2023-12-31T11:11:59.194Z,101035.75
2023-12-31T11:17:27.630Z,101069.72
2023-12-31T11:22:47.722Z,101046.22
2023-12-31T11:27:55.145Z,101044.97
2023-12-31T11:32:57.378Z,101010.84
2023-12-31T11:37:59.769Z,101015.19
2023-12-31T11:43:11.144Z,101029.63
2023-12-31T11:48:27.000Z,101010.25
2023-12-31T11:53:31.674Z,100988.28
2023-12-31T11:58:35.062Z,100999.88
2023-12-31T12:03:37.414Z,100993.50
2023-12-31T12:08:41.017Z,100978.84
2023-12-31T12:13:45.675Z,100984.09
2023-12-31T12:18:48.088Z,100985.34
2023-12-31T12:23:50.414Z,100981.13
2023-12-31T12:28:56.648Z,100978.44
2023-12-31T12:33:59.112Z,100995.66
2023-12-31T12:39:04.407Z,100985.16
2023-12-31T12:44:09.181Z,100986.34
2023-12-31T12:49:13.306Z,100983.50
2023-12-31T12:54:16.564Z,100985.72
2023-12-31T12:59:19.026Z,100986.06
2023-12-31T13:04:21.945Z,100961.59
2023-12-31T13:09:24.447Z,100959.16
2023-12-31T13:14:27.486Z,100983.63
2023-12-31T13:19:29.729Z,100973.13
2023-12-31T13:24:31.984Z,100981.72
2023-12-31T13:29:34.240Z,100972.03
2023-12-31T13:34:36.926Z,100924.34
2023-12-31T13:39:39.195Z,100892.66
2023-12-31T13:44:46.289Z,100962.41
2023-12-31T13:49:48.713Z,100957.97
2023-12-31T13:54:51.439Z,100961.66
2023-12-31T13:59:54.510Z,100951.09
2023-12-31T14:04:57.849Z,100984.75
2023-12-31T14:10:00.112Z,100960.56
2023-12-31T14:15:02.412Z,100981.16
2023-12-31T14:20:07.254Z,100972.97
2023-12-31T14:25:10.638Z,100956.88
2023-12-31T14:30:13.643Z,100961.50
2023-12-31T14:35:16.003Z,100952.53
2023-12-31T14:40:18.334Z,100939.34
2023-12-31T14:45:20.579Z,100957.41
2023-12-31T14:50:23.057Z,100944.53
2023-12-31T14:55:25.448Z,100946.50
2023-12-31T15:00:27.658Z,100940.34
2023-12-31T15:05:30.750Z,100955.28
2023-12-31T15:10:33.167Z,100962.19
2023-12-31T15:15:37.039Z,100960.34
2023-12-31T15:20:42.120Z,100942.25
2023-12-31T15:25:44.904Z,100938.41
2023-12-31T15:30:47.120Z,100931.25
2023-12-31T15:35:51.988Z,100925.25
2023-12-31T15:40:54.378Z,100942.84
2023-12-31T15:45:56.831Z,100888.31
2023-12-31T15:50:59.211Z,100881.75
2023-12-31T15:56:01.699Z,100888.78
2023-12-31T16:01:04.590Z,100883.44
2023-12-31T16:06:08.614Z,100922.41
2023-12-31T16:11:12.270Z,100965.78
2023-12-31T16:16:14.546Z,100972.63
2023-12-31T16:21:16.885Z,100937.84
2023-12-31T16:26:21.488Z,100868.66
2023-12-31T16:31:23.918Z,100916.72
2023-12-31T16:36:30.239Z,100930.78
2023-12-31T16:41:36.565Z,100903.84
2023-12-31T16:46:39.021Z,100967.13
2023-12-31T16:51:43.451Z,100913.06
2023-12-31T16:56:45.948Z,100876.03
2023-12-31T17:01:48.393Z,100924.44
2023-12-31T17:06:50.941Z,100948.38
2023-12-31T17:11:53.214Z,100957.56
2023-12-31T17:16:55.781Z,100960.41
2023-12-31T17:21:58.090Z,100965.75
2023-12-31T17:27:00.792Z,100980.00
2023-12-31T17:32:03.988Z,100965.59
2023-12-31T17:37:10.752Z,100954.53
2023-12-31T17:42:14.843Z,100982.66
2023-12-31T17:47:17.056Z,100996.06
2023-12-31T17:52:19.596Z,100991.03
2023-12-31T17:57:21.782Z,100970.44
2023-12-31T18:02:24.965Z,100972.47
2023-12-31T18:07:27.263Z,100979.66
2023-12-31T18:12:29.510Z,100973.81
2023-12-31T18:17:32.127Z,100943.97
2023-12-31T18:22:35.039Z,100945.16
2023-12-31T18:27:38.441Z,100887.56
2023-12-31T18:32:40.848Z,100917.84
2023-12-31T18:37:43.277Z,100918.00
2023-12-31T18:42:45.602Z,100926.00
2023-12-31T18:47:48.180Z,100941.13
2023-12-31T18:52:50.595Z,100970.63
2023-12-31T18:57:52.821Z,100962.72
2023-12-31T19:02:55.167Z,100977.25
2023-12-31T19:07:57.387Z,100974.53
2023-12-31T19:12:59.668Z,100952.91
2023-12-31T19:18:02.565Z,100942.03
2023-12-31T19:23:05.427Z,100935.81
2023-12-31T19:28:07.884Z,100982.88
2023-12-31T19:33:10.644Z,100973.78
2023-12-31T19:38:13.298Z,100989.69
2023-12-31T19:43:22.073Z,100954.84
2023-12-31T19:48:32.666Z,100979.50
2023-12-31T19:53:37.917Z,100989.22
2023-12-31T19:58:40.649Z,100977.63
2023-12-31T20:03:46.070Z,100949.84
2023-12-31T20:08:48.407Z,100982.38
2023-12-31T20:13:50.862Z,100968.63
2023-12-31T20:18:53.366Z,100985.34
2023-12-31T20:23:57.493Z,100977.13
2023-12-31T20:28:59.960Z,100958.88
2023-12-31T20:34:03.787Z,100957.56
2023-12-31T20:39:06.600Z,100968.09
2023-12-31T20:44:08.857Z,100967.06
2023-12-31T20:49:11.194Z,100974.22
2023-12-31T20:54:14.374Z,100993.13
2023-12-31T20:59:16.530Z,100986.31
2023-12-31T21:04:18.733Z,100996.47
2023-12-31T21:09:21.107Z,100995.31
2023-12-31T21:14:23.428Z,100989.53
2023-12-31T21:19:25.800Z,100915.97
2023-12-31T21:24:28.150Z,100997.44
2023-12-31T21:29:30.759Z,100902.69
2023-12-31T21:34:33.929Z,100886.91
2023-12-31T21:39:36.211Z,100938.88
2023-12-31T21:44:40.582Z,101005.44
2023-12-31T21:49:42.924Z,100960.94
2023-12-31T21:54:45.199Z,100976.06
2023-12-31T21:59:47.456Z,100984.69
2023-12-31T22:04:49.902Z,100979.78
2023-12-31T22:09:54.498Z,100954.69
2023-12-31T22:14:56.786Z,100956.13
2023-12-31T22:19:59.247Z,100973.09
2023-12-31T22:25:01.570Z,100980.53
2023-12-31T22:30:04.428Z,100984.56
2023-12-31T22:35:06.964Z,100970.03
2023-12-31T22:40:10.750Z,100977.63
2023-12-31T22:45:13.077Z,100941.16
2023-12-31T22:50:15.381Z,100984.22
2023-12-31T22:55:17.771Z,100987.91
2023-12-31T23:00:20.697Z,100951.00
2023-12-31T23:05:23.047Z,100978.22
2023-12-31T23:10:25.363Z,100949.00
2023-12-31T23:15:27.671Z,100947.31
2023-12-31T23:20:30.023Z,100950.00
2023-12-31T23:25:32.226Z,100933.91
2023-12-31T23:30:34.572Z,100931.53
2023-12-31T23:35:36.959Z,100941.06
2023-12-31T23:40:39.177Z,100935.19
2023-12-31T23:45:41.538Z,100924.97
2023-12-31T23:50:43.740Z,100920.28
2023-12-31T23:55:46.220Z,100907.53
